sensor_id;sensor_type;location;lat;lon;timestamp;temperature;humidity
12849;DHT22;6493;50.928;7.172;2023-11-19T00:02:19;6.10;79.30
12849;DHT22;6493;50.928;7.172;2023-11-19T00:07:25;6.10;79.40
12849;DHT22;6493;50.928;7.172;2023-11-19T00:12:37;6.20;79.60
12849;DHT22;6493;50.928;7.172;2023-11-19T00:17:44;6.20;79.40
12849;DHT22;6493;50.928;7.172;2023-11-19T00:22:49;6.30;79.50
12849;DHT22;6493;50.928;7.172;2023-11-19T00:27:54;6.30;79.40
12849;DHT22;6493;50.928;7.172;2023-11-19T00:32:59;6.30;79.40
12849;DHT22;6493;50.928;7.172;2023-11-19T00:38:04;6.30;79.30
12849;DHT22;6493;50.928;7.172;2023-11-19T00:43:07;6.30;79.40
12849;DHT22;6493;50.928;7.172;2023-11-19T00:48:11;6.40;79.60
12849;DHT22;6493;50.928;7.172;2023-11-19T00:53:16;6.40;79.70
12849;DHT22;6493;50.928;7.172;2023-11-19T00:58:20;6.40;79.90
12849;DHT22;6493;50.928;7.172;2023-11-19T01:03:24;6.40;79.70
12849;DHT22;6493;50.928;7.172;2023-11-19T01:08:29;6.50;79.90
12849;DHT22;6493;50.928;7.172;2023-11-19T01:13:34;6.50;79.80
12849;DHT22;6493;50.928;7.172;2023-11-19T01:18:38;6.50;79.70
12849;DHT22;6493;50.928;7.172;2023-11-19T01:23:43;6.60;79.90
12849;DHT22;6493;50.928;7.172;2023-11-19T01:28:46;6.60;79.90
12849;DHT22;6493;50.928;7.172;2023-11-19T01:33:53;6.60;80.20
12849;DHT22;6493;50.928;7.172;2023-11-19T01:38:59;6.70;80.90
12849;DHT22;6493;50.928;7.172;2023-11-19T01:44:02;6.70;80.10
12849;DHT22;6493;50.928;7.172;2023-11-19T01:49:07;6.70;80.00
12849;DHT22;6493;50.928;7.172;2023-11-19T01:54:12;6.80;80.20
12849;DHT22;6493;50.928;7.172;2023-11-19T01:59:17;6.80;80.10
12849;DHT22;6493;50.928;7.172;2023-11-19T02:04:23;6.90;80.30
12849;DHT22;6493;50.928;7.172;2023-11-19T02:09:29;6.90;80.40
12849;DHT22;6493;50.928;7.172;2023-11-19T02:14:32;7.00;80.60
12849;DHT22;6493;50.928;7.172;2023-11-19T02:19:36;7.00;80.50
12849;DHT22;6493;50.928;7.172;2023-11-19T02:24:42;7.10;80.70
12849;DHT22;6493;50.928;7.172;2023-11-19T02:29:47;7.10;80.60
12849;DHT22;6493;50.928;7.172;2023-11-19T02:34:51;7.20;80.60
12849;DHT22;6493;50.928;7.172;2023-11-19T02:39:55;7.20;80.50
12849;DHT22;6493;50.928;7.172;2023-11-19T02:45:00;7.20;80.40
12849;DHT22;6493;50.928;7.172;2023-11-19T02:50:04;7.30;80.40
12849;DHT22;6493;50.928;7.172;2023-11-19T02:55:10;7.30;80.40
12849;DHT22;6493;50.928;7.172;2023-11-19T03:00:18;7.30;80.40
12849;DHT22;6493;50.928;7.172;2023-11-19T03:05:27;7.40;80.60
12849;DHT22;6493;50.928;7.172;2023-11-19T03:10:32;7.40;80.50
12849;DHT22;6493;50.928;7.172;2023-11-19T03:15:38;7.40;80.50
12849;DHT22;6493;50.928;7.172;2023-11-19T03:20:42;7.40;80.90
12849;DHT22;6493;50.928;7.172;2023-11-19T03:25:46;7.50;80.60
12849;DHT22;6493;50.928;7.172;2023-11-19T03:30:51;7.50;80.70
12849;DHT22;6493;50.928;7.172;2023-11-19T03:35:56;7.60;80.90
12849;DHT22;6493;50.928;7.172;2023-11-19T03:41:00;7.60;80.70
12849;DHT22;6493;50.928;7.172;2023-11-19T03:46:14;7.70;80.80
12849;DHT22;6493;50.928;7.172;2023-11-19T03:51:18;7.70;80.70
12849;DHT22;6493;50.928;7.172;2023-11-19T03:56:22;7.80;80.90
12849;DHT22;6493;50.928;7.172;2023-11-19T04:01:27;7.80;80.80
12849;DHT22;6493;50.928;7.172;2023-11-19T04:06:31;7.80;80.80
12849;DHT22;6493;50.928;7.172;2023-11-19T04:11:35;7.90;80.70
12849;DHT22;6493;50.928;7.172;2023-11-19T04:16:40;7.90;80.80
12849;DHT22;6493;50.928;7.172;2023-11-19T04:21:45;7.90;80.90
12849;DHT22;6493;50.928;7.172;2023-11-19T04:26:49;7.90;80.80
12849;DHT22;6493;50.928;7.172;2023-11-19T04:31:56;7.90;80.80
12849;DHT22;6493;50.928;7.172;2023-11-19T04:36:59;8.00;80.80
12849;DHT22;6493;50.928;7.172;2023-11-19T04:42:08;8.00;80.70
12849;DHT22;6493;50.928;7.172;2023-11-19T04:47:13;8.10;80.90
12849;DHT22;6493;50.928;7.172;2023-11-19T04:52:17;8.10;80.80
12849;DHT22;6493;50.928;7.172;2023-11-19T04:57:21;8.10;80.70
12849;DHT22;6493;50.928;7.172;2023-11-19T05:02:26;8.10;80.70
12849;DHT22;6493;50.928;7.172;2023-11-19T05:07:29;8.20;81.50
12849;DHT22;6493;50.928;7.172;2023-11-19T05:12:33;8.20;80.70
12849;DHT22;6493;50.928;7.172;2023-11-19T05:17:38;8.20;80.60
12849;DHT22;6493;50.928;7.172;2023-11-19T05:22:42;8.20;80.60
12849;DHT22;6493;50.928;7.172;2023-11-19T05:27:46;8.20;80.60
12849;DHT22;6493;50.928;7.172;2023-11-19T05:32:51;8.20;80.50
12849;DHT22;6493;50.928;7.172;2023-11-19T05:37:55;8.20;80.30
12849;DHT22;6493;50.928;7.172;2023-11-19T05:42:58;8.20;80.10
12849;DHT22;6493;50.928;7.172;2023-11-19T05:48:03;8.10;80.00
12849;DHT22;6493;50.928;7.172;2023-11-19T05:53:07;8.10;79.90
12849;DHT22;6493;50.928;7.172;2023-11-19T05:58:12;8.10;79.80
12849;DHT22;6493;50.928;7.172;2023-11-19T06:03:18;8.00;79.50
12849;DHT22;6493;50.928;7.172;2023-11-19T06:08:22;8.00;79.70
12849;DHT22;6493;50.928;7.172;2023-11-19T06:13:25;8.00;79.60
12849;DHT22;6493;50.928;7.172;2023-11-19T06:18:30;7.90;79.30
12849;DHT22;6493;50.928;7.172;2023-11-19T06:23:35;7.90;79.40
12849;DHT22;6493;50.928;7.172;2023-11-19T06:28:38;7.90;79.40
12849;DHT22;6493;50.928;7.172;2023-11-19T06:33:43;7.90;79.40
12849;DHT22;6493;50.928;7.172;2023-11-19T06:38:47;7.90;79.40
12849;DHT22;6493;50.928;7.172;2023-11-19T06:43:50;7.90;79.50
12849;DHT22;6493;50.928;7.172;2023-11-19T06:48:56;7.90;79.40
12849;DHT22;6493;50.928;7.172;2023-11-19T06:53:59;8.00;79.50
12849;DHT22;6493;50.928;7.172;2023-11-19T06:59:03;8.00;79.50
12849;DHT22;6493;50.928;7.172;2023-11-19T07:04:08;8.00;79.30
12849;DHT22;6493;50.928;7.172;2023-11-19T07:09:13;8.00;79.20
12849;DHT22;6493;50.928;7.172;2023-11-19T07:14:18;8.00;79.00
12849;DHT22;6493;50.928;7.172;2023-11-19T07:19:23;8.00;79.00
12849;DHT22;6493;50.928;7.172;2023-11-19T07:24:26;8.00;79.00
12849;DHT22;6493;50.928;7.172;2023-11-19T07:29:30;8.00;78.80
12849;DHT22;6493;50.928;7.172;2023-11-19T07:34:36;8.00;78.70
12849;DHT22;6493;50.928;7.172;2023-11-19T07:39:40;8.00;78.70
12849;DHT22;6493;50.928;7.172;2023-11-19T07:44:44;8.00;79.00
12849;DHT22;6493;50.928;7.172;2023-11-19T07:49:50;8.10;79.20
12849;DHT22;6493;50.928;7.172;2023-11-19T07:54:53;8.10;79.00
12849;DHT22;6493;50.928;7.172;2023-11-19T07:59:57;8.10;78.70
12849;DHT22;6493;50.928;7.172;2023-11-19T08:05:03;8.20;78.50
12849;DHT22;6493;50.928;7.172;2023-11-19T08:10:07;8.10;78.50
12849;DHT22;6493;50.928;7.172;2023-11-19T08:15:13;8.10;78.40
12849;DHT22;6493;50.928;7.172;2023-11-19T08:20:34;8.10;78.40
12849;DHT22;6493;50.928;7.172;2023-11-19T08:25:37;8.10;78.30
12849;DHT22;6493;50.928;7.172;2023-11-19T08:30:41;8.10;78.80
12849;DHT22;6493;50.928;7.172;2023-11-19T08:35:47;8.20;79.00
12849;DHT22;6493;50.928;7.172;2023-11-19T08:40:51;8.20;79.00
12849;DHT22;6493;50.928;7.172;2023-11-19T08:45:55;8.40;79.90
12849;DHT22;6493;50.928;7.172;2023-11-19T08:51:00;8.60;80.90
12849;DHT22;6493;50.928;7.172;2023-11-19T08:56:04;8.80;80.70
12849;DHT22;6493;50.928;7.172;2023-11-19T09:01:08;9.20;81.50
12849;DHT22;6493;50.928;7.172;2023-11-19T09:06:13;9.60;81.40
12849;DHT22;6493;50.928;7.172;2023-11-19T09:11:17;9.90;80.00
12849;DHT22;6493;50.928;7.172;2023-11-19T09:16:21;10.20;80.30
12849;DHT22;6493;50.928;7.172;2023-11-19T09:21:26;10.60;80.40
12849;DHT22;6493;50.928;7.172;2023-11-19T09:26:31;10.80;78.60
12849;DHT22;6493;50.928;7.172;2023-11-19T09:31:35;10.90;76.60
12849;DHT22;6493;50.928;7.172;2023-11-19T09:36:42;10.90;76.50
12849;DHT22;6493;50.928;7.172;2023-11-19T09:41:46;10.90;76.00
12849;DHT22;6493;50.928;7.172;2023-11-19T09:46:52;10.80;75.50
12849;DHT22;6493;50.928;7.172;2023-11-19T09:51:57;10.70;75.70
12849;DHT22;6493;50.928;7.172;2023-11-19T09:57:02;10.60;74.90
12849;DHT22;6493;50.928;7.172;2023-11-19T10:02:07;10.60;75.80
12849;DHT22;6493;50.928;7.172;2023-11-19T10:07:14;10.60;75.90
12849;DHT22;6493;50.928;7.172;2023-11-19T10:12:18;10.60;74.90
12849;DHT22;6493;50.928;7.172;2023-11-19T10:17:22;10.60;74.90
12849;DHT22;6493;50.928;7.172;2023-11-19T10:22:36;10.50;73.50
12849;DHT22;6493;50.928;7.172;2023-11-19T10:27:40;10.60;74.40
12849;DHT22;6493;50.928;7.172;2023-11-19T10:32:44;10.60;74.40
12849;DHT22;6493;50.928;7.172;2023-11-19T10:37:49;10.70;73.60
12849;DHT22;6493;50.928;7.172;2023-11-19T10:43:02;10.60;73.40
12849;DHT22;6493;50.928;7.172;2023-11-19T10:48:06;10.60;72.10
12849;DHT22;6493;50.928;7.172;2023-11-19T10:53:12;10.60;73.10
12849;DHT22;6493;50.928;7.172;2023-11-19T10:59:47;10.70;73.10
12849;DHT22;6493;50.928;7.172;2023-11-19T11:04:54;10.60;73.40
12849;DHT22;6493;50.928;7.172;2023-11-19T11:10:01;10.60;73.10
12849;DHT22;6493;50.928;7.172;2023-11-19T11:15:06;10.60;72.70
12849;DHT22;6493;50.928;7.172;2023-11-19T11:20:11;10.60;73.00
12849;DHT22;6493;50.928;7.172;2023-11-19T11:25:23;10.50;72.20
12849;DHT22;6493;50.928;7.172;2023-11-19T11:30:38;10.40;72.30
12849;DHT22;6493;50.928;7.172;2023-11-19T11:35:51;10.30;71.80
12849;DHT22;6493;50.928;7.172;2023-11-19T11:41:17;10.10;71.80
12849;DHT22;6493;50.928;7.172;2023-11-19T11:46:56;10.00;71.90
12849;DHT22;6493;50.928;7.172;2023-11-19T11:52:01;9.80;72.30
12849;DHT22;6493;50.928;7.172;2023-11-19T11:57:11;9.80;73.10
12849;DHT22;6493;50.928;7.172;2023-11-19T12:02:18;9.70;73.10
12849;DHT22;6493;50.928;7.172;2023-11-19T12:07:24;9.70;73.00
12849;DHT22;6493;50.928;7.172;2023-11-19T12:12:30;9.70;72.90
12849;DHT22;6493;50.928;7.172;2023-11-19T12:17:42;9.70;72.90
12849;DHT22;6493;50.928;7.172;2023-11-19T12:22:52;9.80;71.80
12849;DHT22;6493;50.928;7.172;2023-11-19T12:27:57;9.90;73.10
12849;DHT22;6493;50.928;7.172;2023-11-19T12:33:08;10.00;73.10
12849;DHT22;6493;50.928;7.172;2023-11-19T12:38:18;10.20;72.80
12849;DHT22;6493;50.928;7.172;2023-11-19T12:43:24;10.30;71.30
12849;DHT22;6493;50.928;7.172;2023-11-19T12:48:27;10.30;71.40
12849;DHT22;6493;50.928;7.172;2023-11-19T12:53:47;10.30;71.90
12849;DHT22;6493;50.928;7.172;2023-11-19T12:58:53;10.30;71.30
12849;DHT22;6493;50.928;7.172;2023-11-19T13:03:57;10.30;71.70
12849;DHT22;6493;50.928;7.172;2023-11-19T13:09:00;10.30;70.80
12849;DHT22;6493;50.928;7.172;2023-11-19T13:14:07;10.20;71.00
12849;DHT22;6493;50.928;7.172;2023-11-19T13:19:12;10.10;70.80
12849;DHT22;6493;50.928;7.172;2023-11-19T13:24:15;10.10;70.90
12849;DHT22;6493;50.928;7.172;2023-11-19T13:29:20;10.00;71.20
12849;DHT22;6493;50.928;7.172;2023-11-19T13:34:24;10.00;71.20
12849;DHT22;6493;50.928;7.172;2023-11-19T13:39:28;10.00;71.00
12849;DHT22;6493;50.928;7.172;2023-11-19T13:44:33;10.00;71.10
12849;DHT22;6493;50.928;7.172;2023-11-19T13:49:36;10.00;70.90
12849;DHT22;6493;50.928;7.172;2023-11-19T13:54:40;10.00;71.30
12849;DHT22;6493;50.928;7.172;2023-11-19T13:59:45;10.00;70.90
12849;DHT22;6493;50.928;7.172;2023-11-19T14:04:49;10.00;71.30
12849;DHT22;6493;50.928;7.172;2023-11-19T14:09:53;10.10;71.30
12849;DHT22;6493;50.928;7.172;2023-11-19T14:14:57;10.10;71.10
12849;DHT22;6493;50.928;7.172;2023-11-19T14:20:02;10.10;70.90
12849;DHT22;6493;50.928;7.172;2023-11-19T14:25:08;10.10;71.00
12849;DHT22;6493;50.928;7.172;2023-11-19T14:30:14;10.10;70.90
12849;DHT22;6493;50.928;7.172;2023-11-19T14:35:18;10.00;70.80
12849;DHT22;6493;50.928;7.172;2023-11-19T14:40:22;10.00;70.30
12849;DHT22;6493;50.928;7.172;2023-11-19T14:45:45;10.00;70.00
12849;DHT22;6493;50.928;7.172;2023-11-19T14:50:52;9.90;70.20
12849;DHT22;6493;50.928;7.172;2023-11-19T14:55:55;9.90;70.00
12849;DHT22;6493;50.928;7.172;2023-11-19T15:01:00;9.80;69.10
12849;DHT22;6493;50.928;7.172;2023-11-19T15:06:07;9.80;68.50
12849;DHT22;6493;50.928;7.172;2023-11-19T15:11:11;9.80;68.80
12849;DHT22;6493;50.928;7.172;2023-11-19T15:16:16;9.70;68.40
12849;DHT22;6493;50.928;7.172;2023-11-19T15:21:26;9.70;69.00
12849;DHT22;6493;50.928;7.172;2023-11-19T15:26:31;9.70;69.40
12849;DHT22;6493;50.928;7.172;2023-11-19T15:31:36;9.70;69.30
12849;DHT22;6493;50.928;7.172;2023-11-19T15:36:40;9.60;69.00
12849;DHT22;6493;50.928;7.172;2023-11-19T15:41:44;9.50;68.80
12849;DHT22;6493;50.928;7.172;2023-11-19T15:46:49;9.50;69.30
12849;DHT22;6493;50.928;7.172;2023-11-19T15:51:53;9.50;69.00
12849;DHT22;6493;50.928;7.172;2023-11-19T15:56:56;9.40;69.10
12849;DHT22;6493;50.928;7.172;2023-11-19T16:02:01;9.40;69.20
12849;DHT22;6493;50.928;7.172;2023-11-19T16:07:05;9.30;69.10
12849;DHT22;6493;50.928;7.172;2023-11-19T16:12:09;9.30;69.40
12849;DHT22;6493;50.928;7.172;2023-11-19T16:17:15;9.20;69.40
12849;DHT22;6493;50.928;7.172;2023-11-19T16:22:18;9.10;69.90
12849;DHT22;6493;50.928;7.172;2023-11-19T16:27:25;9.10;69.30
12849;DHT22;6493;50.928;7.172;2023-11-19T16:32:32;9.00;69.00
12849;DHT22;6493;50.928;7.172;2023-11-19T16:37:36;9.00;69.20
12849;DHT22;6493;50.928;7.172;2023-11-19T16:42:41;9.00;69.20
12849;DHT22;6493;50.928;7.172;2023-11-19T16:47:46;9.00;69.10
12849;DHT22;6493;50.928;7.172;2023-11-19T16:52:50;9.00;69.40
12849;DHT22;6493;50.928;7.172;2023-11-19T16:57:54;8.90;69.00
12849;DHT22;6493;50.928;7.172;2023-11-19T17:02:59;8.90;69.10
12849;DHT22;6493;50.928;7.172;2023-11-19T17:08:05;8.90;68.60
12849;DHT22;6493;50.928;7.172;2023-11-19T17:13:09;8.90;69.20
12849;DHT22;6493;50.928;7.172;2023-11-19T17:18:14;8.90;69.30
12849;DHT22;6493;50.928;7.172;2023-11-19T17:23:19;8.90;69.00
12849;DHT22;6493;50.928;7.172;2023-11-19T17:28:23;8.90;68.80
12849;DHT22;6493;50.928;7.172;2023-11-19T17:33:28;8.90;68.60
12849;DHT22;6493;50.928;7.172;2023-11-19T17:38:32;8.90;68.80
12849;DHT22;6493;50.928;7.172;2023-11-19T17:43:36;8.90;68.60
12849;DHT22;6493;50.928;7.172;2023-11-19T17:48:41;8.90;68.90
12849;DHT22;6493;50.928;7.172;2023-11-19T17:53:45;8.90;69.00
12849;DHT22;6493;50.928;7.172;2023-11-19T17:58:48;8.80;68.40
12849;DHT22;6493;50.928;7.172;2023-11-19T18:03:53;8.90;68.70
12849;DHT22;6493;50.928;7.172;2023-11-19T18:08:57;8.90;68.50
12849;DHT22;6493;50.928;7.172;2023-11-19T18:14:01;8.90;68.20
12849;DHT22;6493;50.928;7.172;2023-11-19T18:19:06;8.90;68.30
12849;DHT22;6493;50.928;7.172;2023-11-19T18:24:10;8.90;68.60
12849;DHT22;6493;50.928;7.172;2023-11-19T18:29:13;8.80;68.50
12849;DHT22;6493;50.928;7.172;2023-11-19T18:34:20;8.80;68.60
12849;DHT22;6493;50.928;7.172;2023-11-19T18:39:25;8.70;68.60
12849;DHT22;6493;50.928;7.172;2023-11-19T18:44:28;8.70;68.70
12849;DHT22;6493;50.928;7.172;2023-11-19T18:49:33;8.60;68.70
12849;DHT22;6493;50.928;7.172;2023-11-19T18:54:38;8.60;68.50
12849;DHT22;6493;50.928;7.172;2023-11-19T18:59:42;8.50;68.70
12849;DHT22;6493;50.928;7.172;2023-11-19T19:04:47;8.50;68.40
12849;DHT22;6493;50.928;7.172;2023-11-19T19:09:51;8.50;68.80
12849;DHT22;6493;50.928;7.172;2023-11-19T19:14:57;8.50;69.00
12849;DHT22;6493;50.928;7.172;2023-11-19T19:20:08;8.50;68.90
12849;DHT22;6493;50.928;7.172;2023-11-19T19:25:12;8.50;69.00
12849;DHT22;6493;50.928;7.172;2023-11-19T19:30:18;8.50;69.00
12849;DHT22;6493;50.928;7.172;2023-11-19T19:35:24;8.50;69.00
12849;DHT22;6493;50.928;7.172;2023-11-19T19:40:31;8.50;69.00
12849;DHT22;6493;50.928;7.172;2023-11-19T19:45:34;8.50;69.10
12849;DHT22;6493;50.928;7.172;2023-11-19T19:50:40;8.40;69.00
12849;DHT22;6493;50.928;7.172;2023-11-19T19:55:43;8.40;69.10
12849;DHT22;6493;50.928;7.172;2023-11-19T20:00:47;8.40;69.30
12849;DHT22;6493;50.928;7.172;2023-11-19T20:05:55;8.30;69.40
12849;DHT22;6493;50.928;7.172;2023-11-19T20:10:59;8.30;69.50
12849;DHT22;6493;50.928;7.172;2023-11-19T20:16:04;8.30;69.60
12849;DHT22;6493;50.928;7.172;2023-11-19T20:21:09;8.30;69.60
12849;DHT22;6493;50.928;7.172;2023-11-19T20:26:13;8.30;69.50
12849;DHT22;6493;50.928;7.172;2023-11-19T20:31:20;8.30;69.50
12849;DHT22;6493;50.928;7.172;2023-11-19T20:36:25;8.40;69.40
12849;DHT22;6493;50.928;7.172;2023-11-19T20:41:29;8.40;69.40
12849;DHT22;6493;50.928;7.172;2023-11-19T20:46:33;8.40;69.40
12849;DHT22;6493;50.928;7.172;2023-11-19T20:51:38;8.50;69.50
12849;DHT22;6493;50.928;7.172;2023-11-19T20:56:42;8.50;70.00
12849;DHT22;6493;50.928;7.172;2023-11-19T21:01:46;8.50;69.10
12849;DHT22;6493;50.928;7.172;2023-11-19T21:06:51;8.50;69.40
12849;DHT22;6493;50.928;7.172;2023-11-19T21:11:57;8.60;69.30
12849;DHT22;6493;50.928;7.172;2023-11-19T21:17:04;8.60;69.30
12849;DHT22;6493;50.928;7.172;2023-11-19T21:22:09;8.50;69.20
12849;DHT22;6493;50.928;7.172;2023-11-19T21:27:13;8.50;69.30
12849;DHT22;6493;50.928;7.172;2023-11-19T21:32:17;8.40;70.10
12849;DHT22;6493;50.928;7.172;2023-11-19T21:37:22;8.40;69.50
12849;DHT22;6493;50.928;7.172;2023-11-19T21:42:25;8.40;69.60
12849;DHT22;6493;50.928;7.172;2023-11-19T21:47:29;8.40;69.70
12849;DHT22;6493;50.928;7.172;2023-11-19T21:52:34;8.40;69.60
12849;DHT22;6493;50.928;7.172;2023-11-19T21:57:38;8.40;69.60
12849;DHT22;6493;50.928;7.172;2023-11-19T22:02:43;8.40;69.70
12849;DHT22;6493;50.928;7.172;2023-11-19T22:07:48;8.50;69.40
12849;DHT22;6493;50.928;7.172;2023-11-19T22:12:52;8.50;69.70
12849;DHT22;6493;50.928;7.172;2023-11-19T22:17:56;8.50;69.70
12849;DHT22;6493;50.928;7.172;2023-11-19T22:23:01;8.50;69.70
12849;DHT22;6493;50.928;7.172;2023-11-19T22:28:05;8.50;69.60
12849;DHT22;6493;50.928;7.172;2023-11-19T22:33:08;8.60;69.70
12849;DHT22;6493;50.928;7.172;2023-11-19T22:38:13;8.60;69.60
12849;DHT22;6493;50.928;7.172;2023-11-19T22:43:17;8.50;69.50
12849;DHT22;6493;50.928;7.172;2023-11-19T22:48:21;8.50;69.50
12849;DHT22;6493;50.928;7.172;2023-11-19T22:53:27;8.50;69.60
12849;DHT22;6493;50.928;7.172;2023-11-19T22:58:30;8.50;69.60
12849;DHT22;6493;50.928;7.172;2023-11-19T23:03:34;8.50;69.60
12849;DHT22;6493;50.928;7.172;2023-11-19T23:08:39;8.40;69.60
12849;DHT22;6493;50.928;7.172;2023-11-19T23:13:43;8.50;69.80
12849;DHT22;6493;50.928;7.172;2023-11-19T23:18:47;8.40;69.60
12849;DHT22;6493;50.928;7.172;2023-11-19T23:23:52;8.40;69.70
12849;DHT22;6493;50.928;7.172;2023-11-19T23:28:55;8.40;69.80
12849;DHT22;6493;50.928;7.172;2023-11-19T23:34:14;8.30;69.80
12849;DHT22;6493;50.928;7.172;2023-11-19T23:39:19;8.30;69.70
12849;DHT22;6493;50.928;7.172;2023-11-19T23:44:23;8.30;69.80
12849;DHT22;6493;50.928;7.172;2023-11-19T23:49:26;8.30;69.90
12849;DHT22;6493;50.928;7.172;2023-11-19T23:54:34;8.30;69.90
12849;DHT22;6493;50.928;7.172;2023-11-19T23:59:40;8.30;69.80
